createdAt,value
2018-12-13T00:00:33.040Z,0
2018-12-13T00:01:13.806Z,0
2018-12-13T00:01:54.578Z,0
2018-12-13T00:02:35.325Z,0
2018-12-13T00:03:16.067Z,0
2018-12-13T00:03:56.823Z,0
2018-12-13T00:04:37.568Z,0
2018-12-13T00:05:18.435Z,0
2018-12-13T00:05:59.171Z,0
2018-12-13T00:06:39.893Z,0
2018-12-13T00:07:20.642Z,0
2018-12-13T00:08:01.446Z,0
2018-12-13T00:08:42.285Z,0
2018-12-13T00:09:23.005Z,0
2018-12-13T00:10:03.746Z,0
2018-12-13T00:10:44.575Z,0
2018-12-13T00:11:25.293Z,0
2018-12-13T00:12:06.001Z,0
2018-12-13T00:12:46.739Z,0
2018-12-13T00:13:27.508Z,0
2018-12-13T00:14:08.329Z,0
2018-12-13T00:14:49.136Z,0
2018-12-13T00:15:29.914Z,0
2018-12-13T00:16:10.630Z,0
2018-12-13T00:16:51.371Z,0
2018-12-13T00:17:32.104Z,0
2018-12-13T00:18:12.878Z,0
2018-12-13T00:18:53.668Z,0
2018-12-13T00:19:34.386Z,0
2018-12-13T00:20:15.248Z,0
2018-12-13T00:20:56.069Z,0
2018-12-13T00:21:36.899Z,0
2018-12-13T00:22:17.693Z,0
2018-12-13T00:22:58.468Z,0
2018-12-13T00:23:39.181Z,0
2018-12-13T00:24:19.949Z,0
2018-12-13T00:25:00.739Z,0
2018-12-13T00:25:41.498Z,0
2018-12-13T00:26:22.367Z,0
2018-12-13T00:27:03.062Z,0
2018-12-13T00:27:43.833Z,0
2018-12-13T00:28:24.709Z,0
2018-12-13T00:29:05.489Z,0
2018-12-13T00:29:46.218Z,0
2018-12-13T00:30:26.967Z,0
2018-12-13T00:31:07.768Z,0
2018-12-13T00:31:48.537Z,0
2018-12-13T00:32:29.310Z,0
2018-12-13T00:33:10.112Z,0
2018-12-13T00:33:50.810Z,0
2018-12-13T00:34:31.565Z,0
2018-12-13T00:35:12.292Z,0
2018-12-13T00:35:53.187Z,0
2018-12-13T00:36:39.427Z,0
2018-12-13T00:37:14.610Z,0
2018-12-13T00:37:55.414Z,0
2018-12-13T00:38:36.187Z,0
2018-12-13T00:39:16.984Z,0
2018-12-13T00:39:57.691Z,0
2018-12-13T00:40:38.472Z,0
2018-12-13T00:41:19.281Z,0
2018-12-13T00:41:59.953Z,0
2018-12-13T00:42:40.699Z,0
2018-12-13T00:43:21.404Z,0
2018-12-13T00:44:02.160Z,0
2018-12-13T00:44:43.040Z,0
2018-12-13T00:45:23.740Z,0
2018-12-13T00:46:04.492Z,0
2018-12-13T00:46:45.278Z,0
2018-12-13T00:47:26.057Z,0
2018-12-13T00:48:06.855Z,0
2018-12-13T00:48:47.561Z,0
2018-12-13T00:49:28.301Z,0
2018-12-13T00:50:09.036Z,0
2018-12-13T00:50:49.807Z,0
2018-12-13T00:51:30.605Z,0
2018-12-13T00:52:11.391Z,0
2018-12-13T00:52:52.079Z,0
2018-12-13T00:53:32.841Z,0
2018-12-13T00:54:13.638Z,0
2018-12-13T00:54:54.333Z,0
2018-12-13T00:55:35.027Z,0
2018-12-13T00:56:15.765Z,0
2018-12-13T00:56:56.498Z,0
2018-12-13T00:57:37.334Z,0
2018-12-13T00:58:18.096Z,0
2018-12-13T00:58:58.869Z,0
2018-12-13T00:59:39.682Z,0
2018-12-13T01:00:20.442Z,0
2018-12-13T01:01:01.233Z,0
2018-12-13T01:01:41.954Z,0
2018-12-13T01:02:22.697Z,0
2018-12-13T01:03:03.465Z,0
2018-12-13T01:03:44.193Z,0
2018-12-13T01:04:24.959Z,0
2018-12-13T01:05:05.743Z,0
2018-12-13T01:05:46.515Z,0
2018-12-13T01:06:27.322Z,0
2018-12-13T01:07:08.144Z,0
2018-12-13T01:07:48.853Z,0
2018-12-13T01:08:29.609Z,0
2018-12-13T01:09:10.341Z,0
2018-12-13T01:09:51.100Z,0
2018-12-13T01:10:31.877Z,0
2018-12-13T01:11:12.612Z,0
2018-12-13T01:11:53.383Z,0
2018-12-13T01:12:34.202Z,0
2018-12-13T01:13:14.967Z,0
2018-12-13T01:13:55.760Z,0
2018-12-13T01:14:36.462Z,0
2018-12-13T01:15:17.207Z,0
2018-12-13T01:15:58.039Z,0
2018-12-13T01:16:38.749Z,0
2018-12-13T01:17:19.447Z,0
2018-12-13T01:18:00.141Z,0
2018-12-13T01:18:40.916Z,0
2018-12-13T01:19:21.712Z,0
2018-12-13T01:20:02.465Z,0
2018-12-13T01:20:43.231Z,0
2018-12-13T01:21:24.008Z,0
2018-12-13T01:22:04.806Z,0
2018-12-13T01:22:45.626Z,0
2018-12-13T01:23:26.330Z,0
2018-12-13T01:24:07.095Z,0
2018-12-13T01:24:47.852Z,0
2018-12-13T01:25:28.719Z,0
2018-12-13T01:26:09.504Z,0
2018-12-13T01:26:50.333Z,0
2018-12-13T01:27:31.048Z,0
2018-12-13T01:28:11.801Z,0
2018-12-13T01:28:52.626Z,0
2018-12-13T01:29:33.388Z,0
2018-12-13T01:30:14.097Z,0
2018-12-13T01:30:54.834Z,0
2018-12-13T01:31:35.535Z,0
2018-12-13T01:32:16.377Z,0
2018-12-13T01:32:57.109Z,0
2018-12-13T01:33:37.914Z,0
2018-12-13T01:34:18.595Z,0
2018-12-13T01:34:59.283Z,0
2018-12-13T01:35:39.971Z,0
2018-12-13T01:36:20.874Z,0
2018-12-13T01:37:01.510Z,0
2018-12-13T01:37:42.241Z,0
2018-12-13T01:38:23.009Z,0
2018-12-13T01:39:03.787Z,0
2018-12-13T01:39:44.615Z,0
2018-12-13T01:40:25.335Z,0
2018-12-13T01:41:06.105Z,0
2018-12-13T01:41:46.829Z,0
2018-12-13T01:42:27.599Z,0
2018-12-13T01:43:08.379Z,0
2018-12-13T01:43:49.133Z,0
2018-12-13T01:44:29.940Z,0
2018-12-13T01:45:10.695Z,0
2018-12-13T01:45:51.511Z,0
2018-12-13T01:46:32.307Z,0
2018-12-13T01:47:13.052Z,0
2018-12-13T01:47:53.814Z,0
2018-12-13T01:48:34.525Z,0
2018-12-13T01:49:15.301Z,0
2018-12-13T01:49:56.135Z,0
2018-12-13T01:50:36.868Z,0
2018-12-13T01:51:17.601Z,0
2018-12-13T01:51:58.387Z,0
2018-12-13T01:52:39.201Z,0
2018-12-13T01:53:19.958Z,0
2018-12-13T01:54:00.673Z,0
2018-12-13T01:54:41.444Z,0
2018-12-13T01:55:22.265Z,0
2018-12-13T01:56:02.931Z,0
2018-12-13T01:56:43.614Z,0
2018-12-13T01:57:24.336Z,0
2018-12-13T01:58:05.109Z,0
2018-12-13T01:58:45.902Z,0
2018-12-13T01:59:26.803Z,0
2018-12-13T02:00:07.496Z,0
2018-12-13T02:00:48.179Z,0
2018-12-13T02:01:28.963Z,0
2018-12-13T02:02:09.700Z,0
2018-12-13T02:02:50.504Z,0
2018-12-13T02:03:31.208Z,0
2018-12-13T02:04:11.973Z,0
2018-12-13T02:04:52.761Z,0
2018-12-13T02:05:33.525Z,0
2018-12-13T02:06:14.325Z,0
2018-12-13T02:06:58.623Z,0
2018-12-13T02:07:35.770Z,0
2018-12-13T02:08:16.483Z,0
2018-12-13T02:08:57.287Z,0
2018-12-13T02:09:38.074Z,0
2018-12-13T02:10:18.899Z,0
2018-12-13T02:10:59.630Z,0
2018-12-13T02:11:40.347Z,0
2018-12-13T02:12:21.131Z,0
2018-12-13T02:13:01.876Z,0
2018-12-13T02:13:42.611Z,0
2018-12-13T02:14:23.319Z,0
2018-12-13T02:15:04.029Z,0
2018-12-13T02:15:44.803Z,0
2018-12-13T02:16:25.621Z,0
2018-12-13T02:17:06.446Z,0
2018-12-13T02:17:47.193Z,0
2018-12-13T02:18:27.942Z,0
2018-12-13T02:19:08.680Z,0
2018-12-13T02:19:49.502Z,0
2018-12-13T02:20:30.275Z,0
2018-12-13T02:21:11.013Z,0
2018-12-13T02:21:51.824Z,0
2018-12-13T02:22:32.609Z,0
2018-12-13T02:23:13.435Z,0
2018-12-13T02:23:54.173Z,0
2018-12-13T02:24:34.928Z,0
2018-12-13T02:25:15.801Z,0
2018-12-13T02:25:56.549Z,0
2018-12-13T02:26:37.287Z,0
2018-12-13T02:27:18.007Z,0
2018-12-13T02:27:58.705Z,0
2018-12-13T02:28:39.536Z,0
2018-12-13T02:29:20.318Z,0
2018-12-13T02:30:01.027Z,0
2018-12-13T02:30:41.930Z,0
2018-12-13T02:31:22.629Z,0
2018-12-13T02:32:03.469Z,0
2018-12-13T02:32:44.207Z,0
2018-12-13T02:33:24.948Z,0
2018-12-13T02:34:05.701Z,0
2018-12-13T02:34:46.485Z,0
2018-12-13T02:35:27.283Z,0
2018-12-13T02:36:08.080Z,0
2018-12-13T02:36:48.867Z,0
2018-12-13T02:37:29.559Z,0
2018-12-13T02:38:10.360Z,0
2018-12-13T02:38:51.178Z,0
2018-12-13T02:39:31.857Z,0
2018-12-13T02:40:12.627Z,0
2018-12-13T02:40:53.411Z,0
2018-12-13T02:41:34.235Z,0
2018-12-13T02:42:15.014Z,0
2018-12-13T02:42:55.813Z,0
2018-12-13T02:43:36.560Z,0
2018-12-13T02:44:17.324Z,0
2018-12-13T02:44:58.016Z,0
2018-12-13T02:45:38.826Z,0
2018-12-13T02:46:19.575Z,0
2018-12-13T02:47:00.322Z,0
2018-12-13T02:47:41.054Z,0
2018-12-13T02:48:21.862Z,0
2018-12-13T02:49:02.671Z,0
2018-12-13T02:49:43.422Z,0
2018-12-13T02:50:24.146Z,0
2018-12-13T02:51:04.890Z,0
2018-12-13T02:51:45.617Z,0
2018-12-13T02:52:26.443Z,0
2018-12-13T02:53:07.188Z,0
2018-12-13T02:53:47.968Z,0
2018-12-13T02:54:28.689Z,0
2018-12-13T02:55:09.402Z,0
2018-12-13T02:55:50.206Z,0
2018-12-13T02:56:30.974Z,0
2018-12-13T02:57:11.665Z,0
2018-12-13T02:57:52.365Z,0
2018-12-13T02:58:33.153Z,0
2018-12-13T02:59:14.015Z,0
2018-12-13T02:59:54.736Z,0
2018-12-13T03:00:35.448Z,0
2018-12-13T03:01:16.217Z,0
2018-12-13T03:01:56.995Z,0
2018-12-13T03:02:37.752Z,0
2018-12-13T03:03:18.480Z,0
2018-12-13T03:03:59.243Z,0
2018-12-13T03:04:40.019Z,0
2018-12-13T03:05:20.736Z,0
2018-12-13T03:06:01.470Z,0
2018-12-13T03:06:42.200Z,0
2018-12-13T03:07:22.971Z,0
2018-12-13T03:08:03.780Z,0
2018-12-13T03:08:44.570Z,0
2018-12-13T03:09:25.318Z,0
2018-12-13T03:10:06.030Z,0
2018-12-13T03:10:46.772Z,0
2018-12-13T03:11:27.491Z,0
2018-12-13T03:12:08.367Z,0
2018-12-13T03:12:49.127Z,0
2018-12-13T03:13:29.862Z,0
2018-12-13T03:14:10.546Z,0
2018-12-13T03:14:51.304Z,0
2018-12-13T03:15:32.129Z,0
2018-12-13T03:16:12.843Z,0
2018-12-13T03:16:53.571Z,0
2018-12-13T03:17:34.377Z,0
2018-12-13T03:18:15.150Z,0
2018-12-13T03:18:55.969Z,0
2018-12-13T03:19:36.658Z,0
2018-12-13T03:20:17.372Z,0
2018-12-13T03:20:58.189Z,0
2018-12-13T03:21:38.912Z,0
2018-12-13T03:22:19.658Z,0
2018-12-13T03:23:00.418Z,0
2018-12-13T03:23:41.139Z,0
2018-12-13T03:24:21.922Z,0
2018-12-13T03:25:02.666Z,0
2018-12-13T03:25:43.410Z,0
2018-12-13T03:26:24.253Z,0
2018-12-13T03:27:04.996Z,0
2018-12-13T03:27:45.803Z,0
2018-12-13T03:28:26.564Z,0
2018-12-13T03:29:07.246Z,0
2018-12-13T03:29:47.957Z,0
2018-12-13T03:30:28.702Z,0
2018-12-13T03:31:09.500Z,0
2018-12-13T03:31:50.343Z,0
2018-12-13T03:32:31.138Z,0
2018-12-13T03:33:11.852Z,0
2018-12-13T03:33:52.680Z,0
2018-12-13T03:34:33.442Z,0
2018-12-13T03:35:14.175Z,0
2018-12-13T03:35:54.895Z,0
2018-12-13T03:36:35.657Z,0
2018-12-13T03:37:20.478Z,0
2018-12-13T03:37:57.298Z,0
2018-12-13T03:38:38.114Z,0
2018-12-13T03:39:18.881Z,0
2018-12-13T03:39:59.633Z,0
2018-12-13T03:40:40.330Z,0
2018-12-13T03:41:21.216Z,0
2018-12-13T03:42:01.930Z,0
2018-12-13T03:42:42.660Z,0
2018-12-13T03:43:23.466Z,0
2018-12-13T03:44:04.237Z,0
2018-12-13T03:44:45.031Z,0
2018-12-13T03:45:25.806Z,0
2018-12-13T03:46:06.497Z,0
2018-12-13T03:46:47.258Z,0
2018-12-13T03:47:28.009Z,0
2018-12-13T03:48:08.808Z,0
2018-12-13T03:48:49.612Z,0
2018-12-13T03:49:30.423Z,0
2018-12-13T03:50:11.156Z,0
2018-12-13T03:50:51.925Z,0
2018-12-13T03:51:32.707Z,0
2018-12-13T03:52:13.466Z,0
2018-12-13T03:52:54.197Z,0
2018-12-13T03:53:34.897Z,0
2018-12-13T03:54:15.710Z,0
2018-12-13T03:54:56.493Z,0
2018-12-13T03:55:37.213Z,0
2018-12-13T03:56:17.981Z,0
2018-12-13T03:56:58.793Z,0
2018-12-13T03:57:39.591Z,0
2018-12-13T03:58:20.337Z,0
2018-12-13T03:59:01.028Z,0
2018-12-13T03:59:41.811Z,0
2018-12-13T04:00:22.620Z,0
2018-12-13T04:01:03.318Z,0
2018-12-13T04:01:44.017Z,0
2018-12-13T04:02:24.758Z,0
2018-12-13T04:03:05.590Z,0
2018-12-13T04:03:46.347Z,0
2018-12-13T04:04:27.187Z,0
2018-12-13T04:05:07.942Z,0
2018-12-13T04:05:48.628Z,0
2018-12-13T04:06:29.413Z,0
2018-12-13T04:07:10.171Z,0
2018-12-13T04:07:50.981Z,0
2018-12-13T04:08:31.683Z,0
2018-12-13T04:09:12.452Z,0
2018-12-13T04:09:53.275Z,0
2018-12-13T04:10:34.053Z,0
2018-12-13T04:11:14.838Z,0
2018-12-13T04:11:55.576Z,0
2018-12-13T04:12:36.277Z,0
2018-12-13T04:13:17.054Z,0
2018-12-13T04:13:57.826Z,0
2018-12-13T04:14:38.587Z,0
2018-12-13T04:15:19.373Z,0
2018-12-13T04:16:00.164Z,0
2018-12-13T04:16:40.882Z,0
2018-12-13T04:17:21.735Z,0
2018-12-13T04:18:02.510Z,0
2018-12-13T04:18:43.230Z,0
2018-12-13T04:19:23.901Z,0
2018-12-13T04:20:04.675Z,0
2018-12-13T04:20:45.524Z,0
2018-12-13T04:21:26.328Z,0
2018-12-13T04:22:07.110Z,0
2018-12-13T04:22:47.863Z,0
2018-12-13T04:23:28.647Z,0
2018-12-13T04:24:09.388Z,0
2018-12-13T04:24:50.185Z,0
2018-12-13T04:25:30.903Z,0
2018-12-13T04:26:11.599Z,0
2018-12-13T04:26:52.351Z,0
2018-12-13T04:27:33.139Z,0
2018-12-13T04:28:14.046Z,0
2018-12-13T04:28:54.761Z,0
2018-12-13T04:29:35.440Z,0
2018-12-13T04:30:16.305Z,0
2018-12-13T04:30:57.083Z,0
2018-12-13T04:31:37.789Z,0
2018-12-13T04:32:18.596Z,0
2018-12-13T04:32:59.331Z,0
2018-12-13T04:33:40.101Z,0
2018-12-13T04:34:20.837Z,0
2018-12-13T04:35:01.535Z,0
2018-12-13T04:35:42.357Z,0
2018-12-13T04:36:23.127Z,0
2018-12-13T04:37:03.959Z,0
2018-12-13T04:37:44.688Z,0
2018-12-13T04:38:25.470Z,0
2018-12-13T04:39:06.179Z,0
2018-12-13T04:39:46.901Z,0
2018-12-13T04:40:27.679Z,0
2018-12-13T04:41:08.534Z,0
2018-12-13T04:41:49.270Z,0
2018-12-13T04:42:29.944Z,0
2018-12-13T04:43:10.683Z,0
2018-12-13T04:43:51.481Z,0
2018-12-13T04:44:32.260Z,0
2018-12-13T04:45:12.977Z,0
2018-12-13T04:45:53.677Z,0
2018-12-13T04:46:34.499Z,0
2018-12-13T04:47:15.590Z,0
2018-12-13T04:47:56.318Z,0
2018-12-13T04:48:37.134Z,0
2018-12-13T04:49:18.013Z,0
2018-12-13T04:49:58.997Z,0
2018-12-13T04:50:39.825Z,0
2018-12-13T04:51:20.563Z,0
2018-12-13T04:52:01.684Z,0
2018-12-13T04:52:42.541Z,0
2018-12-13T04:53:23.410Z,0
2018-12-13T04:54:04.258Z,0
2018-12-13T04:54:45.001Z,0
2018-12-13T04:55:26.001Z,0
2018-12-13T04:56:06.856Z,0
2018-12-13T04:56:47.650Z,0
2018-12-13T04:57:28.421Z,0
2018-12-13T04:58:09.326Z,0
2018-12-13T04:58:50.023Z,0
2018-12-13T04:59:30.877Z,0
2018-12-13T05:00:11.694Z,0
2018-12-13T05:00:52.396Z,0
2018-12-13T05:01:33.209Z,0
2018-12-13T05:02:13.957Z,0
2018-12-13T05:02:54.791Z,0
2018-12-13T05:03:35.557Z,0
2018-12-13T05:04:16.230Z,0
2018-12-13T05:04:57.028Z,0
2018-12-13T05:05:37.799Z,0
2018-12-13T05:06:18.500Z,0
2018-12-13T05:06:59.226Z,0
2018-12-13T05:07:41.788Z,0
2018-12-13T05:08:20.734Z,0
2018-12-13T05:09:01.498Z,0
2018-12-13T05:09:42.202Z,0
2018-12-13T05:10:22.996Z,0
2018-12-13T05:11:03.835Z,0
2018-12-13T05:11:44.588Z,0
2018-12-13T05:12:25.356Z,0
2018-12-13T05:13:06.053Z,0
2018-12-13T05:13:46.756Z,0
2018-12-13T05:14:27.538Z,0
2018-12-13T05:15:08.275Z,0
2018-12-13T05:15:49.079Z,0
2018-12-13T05:16:29.854Z,0
2018-12-13T05:17:10.603Z,0
2018-12-13T05:17:51.357Z,0
2018-12-13T05:18:32.131Z,0
2018-12-13T05:19:12.882Z,0
2018-12-13T05:19:53.602Z,0
2018-12-13T05:20:34.339Z,0
2018-12-13T05:21:15.142Z,0
2018-12-13T05:21:55.931Z,0
2018-12-13T05:22:36.737Z,0
2018-12-13T05:23:17.461Z,0
2018-12-13T05:23:58.171Z,0
2018-12-13T05:24:38.878Z,0
2018-12-13T05:25:19.603Z,0
2018-12-13T05:26:00.422Z,0
2018-12-13T05:26:41.144Z,0
2018-12-13T05:27:21.879Z,0
2018-12-13T05:28:02.677Z,0
2018-12-13T05:28:43.529Z,0
2018-12-13T05:29:24.268Z,0
2018-12-13T05:30:05.008Z,0
2018-12-13T05:30:45.715Z,0
2018-12-13T05:31:26.448Z,0
2018-12-13T05:32:07.292Z,0
2018-12-13T05:32:48.036Z,0
2018-12-13T05:33:28.823Z,0
2018-12-13T05:34:09.565Z,0
2018-12-13T05:34:50.289Z,0
2018-12-13T05:35:31.068Z,0
2018-12-13T05:36:11.874Z,0
2018-12-13T05:36:52.578Z,0
2018-12-13T05:37:33.295Z,0
2018-12-13T05:38:13.987Z,0
2018-12-13T05:38:54.809Z,0
2018-12-13T05:39:35.554Z,0
2018-12-13T05:40:16.313Z,0
2018-12-13T05:40:57.090Z,0
2018-12-13T05:41:37.885Z,0
2018-12-13T05:42:18.625Z,0
2018-12-13T05:42:59.378Z,0
2018-12-13T05:43:40.160Z,0
2018-12-13T05:44:21.005Z,0
2018-12-13T05:45:01.804Z,0
2018-12-13T05:45:42.559Z,0
2018-12-13T05:46:23.307Z,0
2018-12-13T05:47:04.067Z,0
2018-12-13T05:47:44.854Z,0
2018-12-13T05:48:25.646Z,0
2018-12-13T05:49:06.433Z,0
2018-12-13T05:49:47.147Z,0
2018-12-13T05:50:27.841Z,0
2018-12-13T05:51:08.537Z,0
2018-12-13T05:51:49.413Z,0
2018-12-13T05:52:30.550Z,0
2018-12-13T05:53:11.282Z,0
2018-12-13T05:53:52.446Z,0
2018-12-13T05:54:33.289Z,0
2018-12-13T05:55:14.083Z,0
2018-12-13T05:55:54.817Z,0
2018-12-13T05:56:35.566Z,0
2018-12-13T05:57:16.318Z,0
2018-12-13T05:57:57.040Z,0
2018-12-13T05:58:37.887Z,0
2018-12-13T05:59:18.635Z,0
2018-12-13T05:59:59.441Z,0
2018-12-13T06:00:40.257Z,0
2018-12-13T06:01:21.059Z,0
2018-12-13T06:02:01.887Z,0
2018-12-13T06:02:42.625Z,0
2018-12-13T06:03:23.333Z,0
2018-12-13T06:04:04.043Z,0
2018-12-13T06:04:44.796Z,0
2018-12-13T06:05:25.622Z,0
2018-12-13T06:06:06.432Z,0
2018-12-13T06:06:47.915Z,0
2018-12-13T06:07:27.910Z,0
2018-12-13T06:08:08.682Z,0
2018-12-13T06:08:49.390Z,0
2018-12-13T06:09:30.179Z,0
2018-12-13T06:10:10.936Z,0
2018-12-13T06:10:51.644Z,0
2018-12-13T06:11:32.485Z,0
2018-12-13T06:12:13.261Z,0
2018-12-13T06:12:54.107Z,0
2018-12-13T06:13:34.843Z,0
2018-12-13T06:14:15.594Z,0
2018-12-13T06:14:56.401Z,0
2018-12-13T06:15:37.114Z,0
2018-12-13T06:16:17.872Z,0
2018-12-13T06:16:58.574Z,0
2018-12-13T06:17:39.308Z,0
2018-12-13T06:18:20.112Z,0
2018-12-13T06:19:00.843Z,0
2018-12-13T06:19:41.619Z,0
2018-12-13T06:20:22.428Z,0
2018-12-13T06:21:03.189Z,0
2018-12-13T06:21:44.017Z,0
2018-12-13T06:22:24.834Z,0
2018-12-13T06:23:05.721Z,0
2018-12-13T06:23:46.442Z,0
2018-12-13T06:24:27.222Z,0
2018-12-13T06:25:08.093Z,0
2018-12-13T06:25:48.929Z,0
2018-12-13T06:26:29.626Z,0
2018-12-13T06:27:10.383Z,0
2018-12-13T06:27:51.194Z,0
2018-12-13T06:28:31.944Z,0
2018-12-13T06:29:12.649Z,0
2018-12-13T06:29:58.757Z,0
2018-12-13T06:30:34.130Z,0
2018-12-13T06:31:14.974Z,0
2018-12-13T06:31:55.735Z,0
2018-12-13T06:32:36.531Z,0
2018-12-13T06:33:17.238Z,0
2018-12-13T06:33:57.990Z,0
2018-12-13T06:34:38.683Z,0
2018-12-13T06:35:19.422Z,0
2018-12-13T06:36:00.200Z,0
2018-12-13T06:36:40.933Z,0
2018-12-13T06:37:21.687Z,0
2018-12-13T06:38:02.484Z,0
2018-12-13T06:38:43.325Z,0
2018-12-13T06:39:24.152Z,0
2018-12-13T06:40:04.879Z,0
2018-12-13T06:40:45.607Z,0
2018-12-13T06:41:26.325Z,0
2018-12-13T06:42:07.153Z,0
2018-12-13T06:42:47.910Z,0
2018-12-13T06:43:28.727Z,0
2018-12-13T06:44:09.463Z,0
2018-12-13T06:44:50.189Z,0
2018-12-13T06:45:31.045Z,0
2018-12-13T06:46:11.741Z,0
2018-12-13T06:46:52.456Z,0
2018-12-13T06:47:33.215Z,0
2018-12-13T06:48:13.957Z,0
2018-12-13T06:48:54.768Z,0
2018-12-13T06:49:35.606Z,0
2018-12-13T06:50:16.355Z,0
2018-12-13T06:50:57.146Z,0
2018-12-13T06:51:37.920Z,0
2018-12-13T06:52:18.734Z,0
2018-12-13T06:52:59.443Z,0
2018-12-13T06:53:40.208Z,0
2018-12-13T06:54:21.043Z,0
2018-12-13T06:55:01.735Z,0
2018-12-13T06:55:42.458Z,0
2018-12-13T06:56:23.182Z,0
2018-12-13T06:57:03.932Z,0
2018-12-13T06:57:44.783Z,0
2018-12-13T06:58:25.568Z,0
2018-12-13T06:59:06.278Z,0
2018-12-13T06:59:46.997Z,0
2018-12-13T07:00:27.686Z,0
2018-12-13T07:01:08.412Z,0
2018-12-13T07:01:49.209Z,0
2018-12-13T07:02:29.915Z,0
2018-12-13T07:03:10.641Z,0
2018-12-13T07:03:51.457Z,0
2018-12-13T07:04:32.214Z,0
2018-12-13T07:05:13.014Z,0
2018-12-13T07:05:53.779Z,0
2018-12-13T07:06:34.532Z,0
2018-12-13T07:07:15.364Z,0
2018-12-13T07:07:56.088Z,0
2018-12-13T07:08:36.858Z,0
2018-12-13T07:09:17.554Z,0
2018-12-13T07:09:58.346Z,0
2018-12-13T07:10:39.130Z,0
2018-12-13T07:11:19.841Z,0
2018-12-13T07:12:00.604Z,0
2018-12-13T07:12:41.382Z,0
2018-12-13T07:13:22.157Z,0
2018-12-13T07:14:02.927Z,0
2018-12-13T07:14:43.669Z,0
2018-12-13T07:15:24.389Z,0
2018-12-13T07:16:05.140Z,0
2018-12-13T07:16:45.886Z,4
2018-12-13T07:17:26.714Z,4
2018-12-13T07:18:07.514Z,4
2018-12-13T07:18:48.272Z,0
2018-12-13T07:19:29.030Z,0
2018-12-13T07:20:09.788Z,0
2018-12-13T07:20:50.573Z,4
2018-12-13T07:21:31.300Z,4
2018-12-13T07:22:12.056Z,4
2018-12-13T07:22:52.825Z,4
2018-12-13T07:23:33.639Z,4
2018-12-13T07:24:14.362Z,4
2018-12-13T07:24:55.102Z,4
2018-12-13T07:25:35.952Z,4
2018-12-13T07:26:16.776Z,4
2018-12-13T07:26:57.584Z,4
2018-12-13T07:27:38.308Z,4
2018-12-13T07:28:19.028Z,8
2018-12-13T07:28:59.821Z,8
2018-12-13T07:29:40.556Z,4
2018-12-13T07:30:21.246Z,8
2018-12-13T07:31:01.973Z,8
2018-12-13T07:31:42.712Z,8
2018-12-13T07:32:23.581Z,4
2018-12-13T07:33:04.385Z,8
2018-12-13T07:33:45.178Z,8
2018-12-13T07:34:25.856Z,8
2018-12-13T07:35:06.571Z,8
2018-12-13T07:35:47.298Z,8
2018-12-13T07:36:28.032Z,8
2018-12-13T07:37:08.779Z,8
2018-12-13T07:37:49.517Z,8
2018-12-13T07:38:30.292Z,8
2018-12-13T07:39:11.120Z,8
2018-12-13T07:39:52.106Z,8
2018-12-13T07:40:32.811Z,8
2018-12-13T07:41:13.553Z,8
2018-12-13T07:41:54.257Z,8
2018-12-13T07:42:34.978Z,8
2018-12-13T07:43:15.826Z,12
2018-12-13T07:43:56.590Z,8
2018-12-13T07:44:37.341Z,8
2018-12-13T07:45:18.033Z,12
2018-12-13T07:45:58.826Z,12
2018-12-13T07:46:39.640Z,8
2018-12-13T07:47:20.379Z,12
2018-12-13T07:48:01.089Z,12
2018-12-13T07:48:41.789Z,12
2018-12-13T07:49:22.565Z,12
2018-12-13T07:50:03.336Z,12
2018-12-13T07:50:44.117Z,16
2018-12-13T07:51:24.884Z,12
2018-12-13T07:52:05.579Z,16
2018-12-13T07:52:46.271Z,16
2018-12-13T07:53:26.996Z,20
2018-12-13T07:54:07.811Z,20
2018-12-13T07:54:48.547Z,16
2018-12-13T07:55:29.348Z,20
2018-12-13T07:56:10.138Z,20
2018-12-13T07:56:50.901Z,20
2018-12-13T07:57:31.719Z,24
2018-12-13T07:58:12.453Z,20
2018-12-13T07:58:53.197Z,20
2018-12-13T07:59:34.030Z,20
2018-12-13T08:00:14.767Z,20
2018-12-13T08:00:55.456Z,24
2018-12-13T08:01:36.237Z,24
2018-12-13T08:02:16.991Z,24
2018-12-13T08:02:57.800Z,24
2018-12-13T08:03:38.495Z,24
2018-12-13T08:04:19.265Z,24
2018-12-13T08:05:00.042Z,28
2018-12-13T08:05:40.798Z,24
2018-12-13T08:06:21.596Z,28
2018-12-13T08:07:02.304Z,28
2018-12-13T08:07:43.010Z,24
2018-12-13T08:08:23.751Z,28
2018-12-13T08:09:04.496Z,24
2018-12-13T08:09:45.327Z,28
2018-12-13T08:10:26.184Z,28
2018-12-13T08:11:06.885Z,28
2018-12-13T08:11:47.607Z,32
2018-12-13T08:12:28.416Z,32
2018-12-13T08:13:09.194Z,36
2018-12-13T08:13:49.880Z,36
2018-12-13T08:14:30.606Z,40
2018-12-13T08:15:11.377Z,36
2018-12-13T08:15:52.200Z,40
2018-12-13T08:16:33.045Z,40
2018-12-13T08:17:13.861Z,44
2018-12-13T08:17:54.521Z,44
2018-12-13T08:18:35.241Z,44
2018-12-13T08:19:15.991Z,48
2018-12-13T08:19:56.765Z,48
2018-12-13T08:20:37.510Z,48
2018-12-13T08:21:18.196Z,48
2018-12-13T08:21:58.998Z,48
2018-12-13T08:22:39.844Z,48
2018-12-13T08:23:20.607Z,48
2018-12-13T08:24:01.319Z,52
2018-12-13T08:24:42.049Z,48
2018-12-13T08:25:22.744Z,48
2018-12-13T08:26:03.623Z,48
2018-12-13T08:26:44.415Z,48
2018-12-13T08:27:25.233Z,44
2018-12-13T08:28:05.989Z,44
2018-12-13T08:28:46.770Z,44
2018-12-13T08:29:27.569Z,44
2018-12-13T08:30:08.359Z,44
2018-12-13T08:30:49.092Z,40
2018-12-13T08:31:29.789Z,40
2018-12-13T08:32:10.538Z,40
2018-12-13T08:32:51.321Z,40
2018-12-13T08:33:32.088Z,40
2018-12-13T08:34:12.856Z,44
2018-12-13T08:34:53.659Z,40
2018-12-13T08:35:34.465Z,40
2018-12-13T08:36:15.273Z,40
2018-12-13T08:36:56.046Z,40
2018-12-13T08:37:36.780Z,40
2018-12-13T08:38:17.615Z,40
2018-12-13T08:38:58.394Z,40
2018-12-13T08:39:39.069Z,40
2018-12-13T08:40:19.821Z,44
2018-12-13T08:41:00.621Z,44
2018-12-13T08:41:41.454Z,44
2018-12-13T08:42:22.271Z,44
2018-12-13T08:43:03.050Z,44
2018-12-13T08:43:43.734Z,48
2018-12-13T08:44:24.442Z,48
2018-12-13T08:45:05.192Z,48
2018-12-13T08:45:45.970Z,48
2018-12-13T08:46:26.767Z,48
2018-12-13T08:47:07.443Z,52
2018-12-13T08:47:48.217Z,52
2018-12-13T08:48:28.986Z,48
2018-12-13T08:49:09.851Z,52
2018-12-13T08:49:50.590Z,48
2018-12-13T08:50:31.298Z,48
2018-12-13T08:51:12.071Z,48
2018-12-13T08:51:52.913Z,48
2018-12-13T08:52:33.711Z,44
2018-12-13T08:53:14.506Z,44
2018-12-13T08:53:55.278Z,44
2018-12-13T08:54:36.030Z,44
2018-12-13T08:55:16.820Z,44
2018-12-13T08:55:57.654Z,40
2018-12-13T08:56:38.385Z,40
2018-12-13T08:57:19.108Z,40
2018-12-13T08:57:59.813Z,36
2018-12-13T08:58:40.614Z,40
2018-12-13T08:59:21.392Z,36
2018-12-13T09:00:02.187Z,36
2018-12-13T09:00:42.941Z,36
2018-12-13T09:01:23.657Z,36
2018-12-13T09:02:04.359Z,36
2018-12-13T09:02:45.129Z,32
2018-12-13T09:03:25.908Z,36
2018-12-13T09:04:06.606Z,32
2018-12-13T09:04:47.320Z,32
2018-12-13T09:05:28.134Z,32
2018-12-13T09:06:08.941Z,32
2018-12-13T09:06:49.703Z,36
2018-12-13T09:07:30.409Z,36
2018-12-13T09:08:11.169Z,32
2018-12-13T09:08:52.000Z,32
2018-12-13T09:09:32.732Z,36
2018-12-13T09:10:13.457Z,36
2018-12-13T09:10:54.188Z,36
2018-12-13T09:11:34.989Z,36
2018-12-13T09:12:15.716Z,40
2018-12-13T09:12:56.449Z,36
2018-12-13T09:13:37.272Z,40
2018-12-13T09:14:18.038Z,36
2018-12-13T09:14:58.869Z,40
2018-12-13T09:15:39.625Z,40
2018-12-13T09:16:20.350Z,40
2018-12-13T09:17:01.091Z,40
2018-12-13T09:17:41.847Z,40
2018-12-13T09:18:22.640Z,40
2018-12-13T09:19:03.435Z,40
2018-12-13T09:19:44.187Z,40
2018-12-13T09:20:24.941Z,40
2018-12-13T09:21:05.653Z,40
2018-12-13T09:21:46.509Z,40
2018-12-13T09:22:27.256Z,40
2018-12-13T09:23:08.001Z,36
2018-12-13T09:23:48.737Z,40
2018-12-13T09:24:29.511Z,40
2018-12-13T09:25:10.317Z,40
2018-12-13T09:25:51.080Z,40
2018-12-13T09:26:31.778Z,40
2018-12-13T09:27:12.570Z,40
2018-12-13T09:27:53.326Z,40
2018-12-13T09:28:34.144Z,40
2018-12-13T09:29:14.851Z,36
2018-12-13T09:29:55.598Z,36
2018-12-13T09:30:36.449Z,36
2018-12-13T09:31:17.165Z,36
2018-12-13T09:31:57.862Z,36
2018-12-13T09:32:38.579Z,36
2018-12-13T09:33:19.334Z,36
2018-12-13T09:34:00.195Z,40
2018-12-13T09:34:41.070Z,40
2018-12-13T09:35:21.798Z,36
2018-12-13T09:36:02.547Z,40
2018-12-13T09:36:43.247Z,40
2018-12-13T09:37:23.979Z,40
2018-12-13T09:38:04.782Z,44
2018-12-13T09:38:45.528Z,44
2018-12-13T09:39:26.264Z,40
2018-12-13T09:40:07.068Z,44
2018-12-13T09:40:47.817Z,44
2018-12-13T09:41:28.609Z,44
2018-12-13T09:42:09.308Z,44
2018-12-13T09:42:50.063Z,48
2018-12-13T09:43:30.866Z,44
2018-12-13T09:44:11.582Z,48
2018-12-13T09:44:52.298Z,48
2018-12-13T09:45:32.998Z,52
2018-12-13T09:46:13.735Z,48
2018-12-13T09:46:54.556Z,48
2018-12-13T09:47:35.295Z,48
2018-12-13T09:48:16.019Z,52
2018-12-13T09:48:56.853Z,52
2018-12-13T09:49:37.649Z,48
2018-12-13T09:50:18.442Z,52
2018-12-13T09:50:59.137Z,48
2018-12-13T09:51:39.902Z,52
2018-12-13T09:52:20.648Z,52
2018-12-13T09:53:01.420Z,56
2018-12-13T09:53:42.198Z,56
2018-12-13T09:54:23.028Z,56
2018-12-13T09:55:05.718Z,56
2018-12-13T09:55:44.575Z,56
2018-12-13T09:56:25.361Z,60
2018-12-13T09:57:06.114Z,60
2018-12-13T09:57:46.833Z,60
2018-12-13T09:58:27.594Z,64